Pageland, South Carolina
Current Conditions -  °F | °C
As of 3:22 AM on Monday 24 Nov 2014 (Local Time) from KEQY Reporting Station
Overcast Overcast  
Wind Chill: 17°   Ceiling: 3300
Heat Index: 17°   Visibility: 10mi
Dew Point: 14°   Wind: 13mph
Humidity: 84%   Direction: 220°SW
Pressure: 29.77"   Gusts: NA
Location:  34.77°N, 80.39°W
Report Text: KEQY 240822Z AUTO 22011KT 10SM SCT018 SCT025 OVC033 17/14 A2977 RMK AO2 T01670139
Loading
Personal Weather Stations






























Interactive Weather Map New forecast layout! Learn more

10-Day Weather Forecast

Advertisements
Track Severe Weather on mobile